KLGU/LGU METAR and TAF weather

Enter ICAO airport designator
Station Type Date Time Source
KLGU METAR 2021/05/07 01:51 UTC NOAA

KLGU 070151Z AUTO 16004KT 10SM CLR 24/01 A2997 RMK AO2 SLP114 T02440006


Station Type Date Time Source
KLGU Decoded METAR 2021/05/07 01:51 UTC NOAA

LOGAN CACHE AIRPORT, UT, United States (KLGU) 41-47N 111-51W 1355M
May 06, 2021 - 09:51 PM EDT / 2021.05.07 0151 UTC
Wind: from the SSE (160 degrees) at 5 MPH (4 KT):0
Visibility: 10 mile(s):0
Sky conditions: clear
Temperature: 75.9 F (24.4 C)
Dew Point: 33.1 F (0.6 C)
Relative Humidity: 20%
Pressure (altimeter): 29.97 in. Hg (1014 hPa)
ob: KLGU 070151Z AUTO 16004KT 10SM CLR 24/01 A2997 RMK AO2 SLP114 T02440006
cycle: 2

Station Type Date Time Source
KLGU TAF 2021/05/06 18:22 UTC NOAA

TAF KLGU 061720Z 0618/0718 VRB04KT P6SM FEW250

Example: see airport list